createdAt,value
2023-02-19T00:10:45.707Z,3.97
2023-02-19T00:25:37.637Z,3.72
2023-02-19T00:40:29.664Z,4.39
2023-02-19T00:55:23.444Z,3.77
2023-02-19T01:10:17.498Z,3.69
2023-02-19T01:25:10.475Z,3.01
2023-02-19T01:40:02.439Z,2.88
2023-02-19T01:54:54.298Z,2.63
2023-02-19T02:10:05.162Z,1.83
2023-02-19T02:25:17.363Z,1.59
2023-02-19T02:40:13.132Z,1.30
2023-02-19T02:55:06.074Z,1.54
2023-02-19T03:25:24.219Z,1.70
2023-02-19T03:40:22.208Z,1.48
2023-02-19T03:55:18.236Z,0.90
2023-02-19T04:10:13.777Z,2.42
2023-02-19T04:25:06.607Z,1.30
2023-02-19T04:40:00.577Z,2.04
2023-02-19T04:54:59.366Z,1.47
2023-02-19T05:09:45.507Z,1.13
2023-02-19T05:24:38.282Z,1.76
2023-02-19T05:39:28.254Z,1.08
2023-02-19T05:54:18.999Z,1.00
2023-02-19T06:09:11.921Z,0.96
2023-02-19T06:24:08.893Z,1.17
2023-02-19T06:39:04.057Z,1.50
2023-02-19T06:53:56.871Z,1.56
2023-02-19T07:08:50.971Z,1.17
2023-02-19T07:23:43.842Z,1.84
2023-02-19T07:38:36.799Z,2.48
2023-02-19T07:53:29.662Z,2.36
2023-02-19T08:08:22.723Z,2.68
2023-02-19T08:25:41.082Z,3.39
2023-02-19T08:28:07.385Z,2.64
2023-02-19T08:42:30.701Z,2.99
2023-02-19T08:57:24.051Z,3.29
2023-02-19T09:12:18.084Z,3.09
2023-02-19T09:27:10.997Z,2.57
2023-02-19T09:42:03.989Z,4.28
2023-02-19T09:56:59.016Z,2.06
2023-02-19T10:11:58.057Z,2.24
2023-02-19T10:26:55.049Z,3.41
2023-02-19T10:57:20.029Z,2.74
2023-02-19T11:12:17.951Z,4.18
2023-02-19T11:27:11.167Z,2.53
2023-02-19T11:42:23.419Z,3.26
2023-02-19T11:57:41.778Z,3.43
2023-02-19T12:12:56.324Z,3.74
2023-02-19T12:28:03.637Z,2.88
2023-02-19T12:58:07.949Z,3.09
2023-02-19T13:13:02.989Z,3.76
2023-02-19T13:27:57.848Z,3.48
2023-02-19T13:42:53.357Z,4.44
2023-02-19T13:57:47.343Z,3.88
2023-02-19T14:12:38.258Z,3.71
2023-02-19T14:27:30.707Z,3.58
2023-02-19T14:42:24.712Z,3.51
2023-02-19T14:57:19.598Z,3.36
2023-02-19T15:12:14.376Z,4.01
2023-02-19T15:27:06.403Z,3.20
2023-02-19T15:42:00.592Z,4.48
2023-02-19T15:56:53.404Z,4.61
2023-02-19T16:11:53.369Z,5.57
2023-02-19T16:26:49.357Z,5.46
2023-02-19T16:41:48.408Z,5.80
2023-02-19T16:56:44.564Z,6.41
2023-02-19T17:11:37.925Z,4.49
2023-02-19T17:26:31.349Z,5.02
2023-02-19T17:41:23.803Z,4.24
2023-02-19T17:56:16.793Z,4.94
2023-02-19T18:11:09.940Z,4.88
2023-02-19T18:26:03.181Z,4.31
2023-02-19T18:40:54.550Z,3.96
2023-02-19T18:55:46.564Z,5.59
2023-02-19T19:10:38.326Z,5.32
2023-02-19T19:25:30.368Z,6.44
2023-02-19T19:40:22.320Z,4.99
2023-02-19T19:55:15.301Z,4.47
2023-02-19T20:10:09.782Z,5.37
2023-02-19T20:25:03.702Z,6.07
2023-02-19T20:39:57.514Z,7.11
2023-02-19T20:54:51.025Z,7.50
2023-02-19T21:09:43.995Z,6.80
2023-02-19T21:24:35.981Z,6.61
2023-02-19T21:39:29.932Z,5.31
2023-02-19T21:54:21.997Z,7.10
2023-02-19T22:24:06.842Z,6.89
2023-02-19T22:38:59.639Z,6.16
2023-02-19T22:53:53.602Z,7.66
2023-02-19T23:08:46.502Z,7.54
2023-02-19T23:23:38.556Z,6.82
2023-02-19T23:38:31.421Z,6.97
2023-02-19T23:53:23.352Z,7.33
